createdAt,value
2022-09-01T10:19:01.087Z,35.44
2022-09-01T10:21:40.492Z,33.88
2022-09-01T10:24:30.909Z,32.96
2022-09-01T10:27:14.311Z,32.68
2022-09-01T10:29:50.364Z,32.06
2022-09-01T10:32:42.164Z,32.18
2022-09-01T10:35:24.935Z,32.01
2022-09-01T10:37:55.939Z,31.95
2022-09-01T10:40:33.550Z,31.31
2022-09-01T10:43:26.284Z,31.57
2022-09-01T10:46:05.340Z,31.37
2022-09-01T10:48:48.227Z,31.71
2022-09-01T10:51:29.700Z,31.82
2022-09-01T10:54:04.092Z,31.55
2022-09-01T10:56:52.755Z,31.81
2022-09-01T10:59:37.618Z,33.45
2022-09-01T11:02:42.082Z,33.63
2022-09-01T11:04:59.361Z,32.26
2022-09-01T11:08:00.105Z,32.17
2022-09-01T11:10:47.761Z,31.47
2022-09-01T11:13:32.014Z,31.09
2022-09-01T11:19:16.596Z,30.53
2022-09-01T11:21:45.074Z,30.63
2022-09-01T11:24:52.038Z,30.61
2022-09-01T11:27:50.649Z,30.47
2022-09-01T11:30:22.298Z,29.81
2022-09-01T11:32:57.772Z,29.48
2022-09-01T11:35:29.111Z,29.05
2022-09-01T11:38:03.530Z,28.99
2022-09-01T11:40:33.187Z,28.51
2022-09-01T11:43:07.028Z,28.96
2022-09-01T11:46:07.498Z,29.17
2022-09-01T11:48:35.221Z,29.28
2022-09-01T11:51:07.038Z,28.90
2022-09-01T11:53:37.041Z,28.50
2022-09-01T11:56:18.583Z,28.54
2022-09-01T11:58:49.004Z,28.15
2022-09-01T12:01:30.593Z,28.36
2022-09-01T12:03:59.181Z,28.45
2022-09-01T12:06:32.683Z,28.47
2022-09-01T12:09:04.753Z,28.59
2022-09-01T12:11:36.663Z,28.94
2022-09-01T12:14:11.668Z,28.98
2022-09-01T12:16:46.413Z,29.38
2022-09-01T12:19:30.498Z,29.16
2022-09-01T12:22:04.557Z,29.54
2022-09-01T12:24:37.442Z,29.46
2022-09-01T12:27:05.090Z,29.37
2022-09-01T12:29:38.002Z,29.08
2022-09-01T12:32:05.866Z,28.78
2022-09-01T12:34:49.568Z,28.52
2022-09-01T12:37:16.574Z,28.91
2022-09-01T12:39:50.984Z,28.35
2022-09-01T12:42:22.067Z,28.18
2022-09-01T12:44:52.353Z,29.12
2022-09-01T12:47:38.491Z,29.40
2022-09-01T12:50:29.713Z,29.15
2022-09-01T12:53:14.975Z,29.15
2022-09-01T12:55:57.360Z,29.08
2022-09-01T12:58:28.385Z,29.08
2022-09-01T13:01:01.878Z,28.87
2022-09-01T13:03:30.713Z,28.05
2022-09-01T13:06:03.041Z,28.30
2022-09-01T13:08:33.802Z,29.04
2022-09-01T13:11:11.693Z,30.17
2022-09-01T13:13:42.484Z,31.08
2022-09-01T13:16:13.120Z,31.09
2022-09-01T13:21:31.530Z,30.02
2022-09-01T13:24:01.076Z,29.84
2022-09-01T13:26:32.126Z,29.87
2022-09-01T13:28:59.962Z,30.14
2022-09-01T13:31:32.021Z,30.47
2022-09-01T13:34:22.518Z,29.95
2022-09-01T13:36:51.707Z,29.78
2022-09-01T13:39:20.400Z,29.50
2022-09-01T13:41:52.709Z,29.55
2022-09-01T13:44:19.840Z,29.51
2022-09-01T13:50:06.494Z,30.12
2022-09-01T13:52:27.357Z,29.69
2022-09-01T13:54:57.275Z,29.80
2022-09-01T13:57:24.935Z,29.78
2022-09-01T13:59:52.145Z,29.45
2022-09-01T14:02:20.151Z,29.85
2022-09-01T14:04:47.471Z,30.27
2022-09-01T14:07:16.400Z,30.37
2022-09-01T14:09:46.110Z,30.30
2022-09-01T14:12:13.845Z,29.78
2022-09-01T14:17:28.195Z,29.89
2022-09-01T14:19:57.554Z,30.85
2022-09-01T14:22:27.071Z,30.55
2022-09-01T14:24:55.515Z,30.52
2022-09-01T14:27:22.694Z,30.80
2022-09-01T14:29:51.207Z,30.60
2022-09-01T14:32:27.070Z,30.47
2022-09-01T14:34:59.695Z,30.57
2022-09-01T14:37:27.257Z,30.71
2022-09-01T14:39:58.916Z,30.61
2022-09-01T14:42:29.039Z,30.37
2022-09-01T14:44:58.738Z,30.71
2022-09-01T14:47:26.504Z,30.32
2022-09-01T14:49:55.487Z,30.35
2022-09-01T14:52:23.875Z,30.33
2022-09-01T14:54:51.690Z,30.29
2022-09-01T14:57:37.729Z,29.68
2022-09-01T15:00:10.313Z,28.56
2022-09-01T15:02:44.116Z,28.40
2022-09-01T15:05:16.386Z,28.35
2022-09-01T15:07:44.453Z,28.99
2022-09-01T15:10:24.380Z,29.13
2022-09-01T15:13:00.103Z,29.02
2022-09-01T15:15:29.050Z,28.22
2022-09-01T15:17:57.222Z,27.20
2022-09-01T15:20:43.625Z,27.06
2022-09-01T15:23:21.321Z,26.79
2022-09-01T15:25:51.451Z,26.85
2022-09-01T15:28:21.483Z,26.99
2022-09-01T15:30:54.363Z,27.26
2022-09-01T15:33:21.799Z,27.29
2022-09-01T15:35:48.947Z,27.88
2022-09-01T15:38:17.694Z,27.94
2022-09-01T15:40:55.393Z,27.88
2022-09-01T15:43:26.884Z,28.06
2022-09-01T15:45:56.798Z,28.44
2022-09-01T15:48:25.078Z,28.56
2022-09-01T15:50:54.429Z,30.92
2022-09-01T15:53:21.778Z,32.98
2022-09-01T15:55:50.210Z,34.97
2022-09-01T15:58:20.291Z,35.17
2022-09-01T16:00:49.551Z,35.86
2022-09-01T16:03:17.156Z,35.97
2022-09-01T16:05:44.647Z,35.84
2022-09-01T16:08:14.715Z,36.52
2022-09-01T16:10:42.748Z,36.63
2022-09-01T16:13:12.133Z,37.35
2022-09-01T16:15:57.176Z,37.25
2022-09-01T16:18:27.122Z,37.39
2022-09-01T16:21:24.314Z,37.52
2022-09-01T16:23:54.666Z,37.67
2022-09-01T16:26:23.913Z,37.91
2022-09-01T16:28:55.248Z,37.86
2022-09-01T16:31:32.017Z,38.58
2022-09-01T16:34:07.514Z,38.26
2022-09-01T16:37:07.183Z,38.08
2022-09-01T16:39:50.958Z,37.89
2022-09-01T16:42:47.302Z,37.97
2022-09-01T16:45:52.849Z,38.19
2022-09-01T16:48:25.484Z,38.26
2022-09-01T16:50:54.618Z,38.34
2022-09-01T16:53:30.431Z,38.29
2022-09-01T16:56:34.249Z,38.16
2022-09-01T17:02:01.069Z,38.66
2022-09-01T17:04:48.125Z,38.86
2022-09-01T17:08:06.160Z,38.69
2022-09-01T17:10:43.644Z,38.90
2022-09-01T17:13:23.649Z,38.92
2022-09-01T17:15:58.651Z,39.30
2022-09-01T17:18:48.526Z,39.22
2022-09-01T17:21:22.432Z,39.44
2022-09-01T17:24:18.695Z,39.63
2022-09-01T17:26:50.886Z,39.67
2022-09-01T17:29:28.426Z,39.58
2022-09-01T17:32:24.041Z,40.16
2022-09-01T17:35:17.624Z,39.99
2022-09-01T17:38:14.253Z,40.03
2022-09-01T17:41:06.079Z,40.41
2022-09-01T17:43:54.121Z,39.94
2022-09-01T17:46:31.454Z,38.64
2022-09-01T17:49:13.946Z,38.69
2022-09-01T17:51:44.038Z,38.65
2022-09-01T17:54:27.572Z,38.74
2022-09-01T17:56:56.627Z,39.04
2022-09-01T17:59:49.520Z,39.14
2022-09-01T18:02:41.755Z,39.17
2022-09-01T18:05:21.509Z,39.09
2022-09-01T18:08:16.094Z,38.75
2022-09-01T18:11:06.359Z,39.04
2022-09-01T18:13:54.400Z,39.16
2022-09-01T18:16:26.852Z,39.34
2022-09-01T18:18:57.681Z,39.24
2022-09-01T18:22:01.551Z,39.28
2022-09-01T18:24:38.675Z,39.19
2022-09-01T18:27:10.273Z,39.39
2022-09-01T18:29:37.536Z,39.41
2022-09-01T18:32:44.565Z,39.71
2022-09-01T18:35:39.221Z,40.81
2022-09-01T18:38:19.578Z,41.01
2022-09-01T18:41:08.941Z,40.82
2022-09-01T18:43:49.509Z,40.32
2022-09-01T18:46:37.815Z,40.08
2022-09-01T18:49:09.823Z,40.32
2022-09-01T18:51:57.900Z,40.14
2022-09-01T18:54:37.752Z,40.39
2022-09-01T18:57:07.518Z,40.26
2022-09-01T18:59:44.911Z,40.62
2022-09-01T19:02:21.042Z,40.78
2022-09-01T19:04:58.461Z,40.92
2022-09-01T19:07:58.184Z,40.79
2022-09-01T19:10:48.057Z,40.68
2022-09-01T19:13:28.237Z,40.79
2022-09-01T19:16:19.804Z,40.60
2022-09-01T19:19:13.197Z,41.01
2022-09-01T19:21:43.963Z,41.49
2022-09-01T19:24:20.234Z,41.54
2022-09-01T19:27:11.820Z,42.00
2022-09-01T19:29:52.894Z,42.26
2022-09-01T19:32:27.566Z,42.55
2022-09-01T19:35:22.259Z,42.55
2022-09-01T19:37:54.424Z,43.01
2022-09-01T19:40:32.119Z,42.84
2022-09-01T19:43:10.697Z,42.85
2022-09-01T19:45:52.690Z,42.67
2022-09-01T19:48:26.638Z,43.22
2022-09-01T19:51:00.410Z,43.36
2022-09-01T19:53:36.930Z,43.44
2022-09-01T19:56:17.381Z,43.62
2022-09-01T19:59:18.281Z,43.41
2022-09-01T20:02:11.695Z,43.77
2022-09-01T20:04:45.959Z,43.81
2022-09-01T20:07:32.480Z,43.84
2022-09-01T20:10:23.480Z,44.30
2022-09-01T20:13:19.759Z,44.42
2022-09-01T20:16:08.866Z,44.53
2022-09-01T20:18:50.219Z,44.43
2022-09-01T20:21:21.662Z,44.66
2022-09-01T20:24:03.521Z,44.31
2022-09-01T20:26:39.370Z,44.45
2022-09-01T20:29:14.485Z,44.66
2022-09-01T20:31:50.260Z,45.05
2022-09-01T20:34:26.789Z,45.06
2022-09-01T20:36:58.925Z,45.29
2022-09-01T20:39:51.687Z,45.58
2022-09-01T20:42:31.403Z,45.35
2022-09-01T20:45:00.728Z,45.40
2022-09-01T20:47:35.036Z,45.91
2022-09-01T20:50:08.797Z,46.33
2022-09-01T20:53:27.410Z,46.21
2022-09-01T20:56:04.742Z,47.13
2022-09-01T20:58:47.882Z,46.82
2022-09-01T21:01:35.321Z,46.36
2022-09-01T21:04:22.628Z,45.90
2022-09-01T21:06:57.343Z,45.68
2022-09-01T21:09:48.644Z,45.58
2022-09-01T21:12:40.076Z,45.60
2022-09-01T21:15:09.690Z,45.53
2022-09-01T21:18:05.826Z,46.00
2022-09-01T21:21:03.999Z,45.65
2022-09-01T21:23:31.959Z,45.72
2022-09-01T21:26:00.396Z,45.43
2022-09-01T21:28:31.279Z,45.44
2022-09-01T21:31:02.273Z,45.71
2022-09-01T21:33:31.823Z,45.37
2022-09-01T21:36:03.889Z,45.18
2022-09-01T21:38:31.245Z,45.42
2022-09-01T21:41:00.488Z,45.24
2022-09-01T21:43:41.748Z,45.32
2022-09-01T21:46:10.494Z,45.32
2022-09-01T21:48:37.601Z,45.40
2022-09-01T21:51:05.218Z,45.52
2022-09-01T21:53:32.781Z,45.55
2022-09-01T21:56:00.031Z,45.50
2022-09-01T21:58:27.390Z,45.91
2022-09-01T22:00:55.996Z,45.85
2022-09-01T22:03:23.444Z,45.93
2022-09-01T22:05:56.106Z,45.64
2022-09-01T22:08:24.793Z,45.35
2022-09-01T22:10:54.767Z,45.05
2022-09-01T22:13:24.148Z,45.17
2022-09-01T22:15:53.838Z,45.04
2022-09-01T22:18:22.400Z,45.13
2022-09-01T22:20:49.772Z,45.24
2022-09-01T22:23:20.398Z,45.48
2022-09-01T22:25:51.324Z,45.24
2022-09-01T22:28:18.577Z,45.28
2022-09-01T22:30:48.174Z,45.19
2022-09-01T22:33:22.103Z,45.32
2022-09-01T22:35:54.772Z,45.38
2022-09-01T22:38:23.608Z,45.51
2022-09-01T22:40:55.217Z,45.84
2022-09-01T22:43:27.281Z,46.07
2022-09-01T22:45:55.977Z,45.82
2022-09-01T22:48:27.190Z,45.98
2022-09-01T22:50:54.669Z,45.97
2022-09-01T22:53:23.149Z,46.21
2022-09-01T22:55:52.831Z,46.39
2022-09-01T22:58:20.932Z,46.30
2022-09-01T23:00:59.384Z,46.33
2022-09-01T23:03:30.858Z,46.45
2022-09-01T23:06:07.651Z,46.30
2022-09-01T23:08:39.008Z,46.65
2022-09-01T23:11:07.772Z,46.71
2022-09-01T23:13:36.118Z,46.69
2022-09-01T23:16:10.178Z,46.90
2022-09-01T23:18:39.642Z,47.21
2022-09-01T23:21:11.925Z,47.17
2022-09-01T23:23:39.841Z,47.45
2022-09-01T23:26:11.190Z,47.42
2022-09-01T23:28:40.551Z,47.43
2022-09-01T23:31:15.042Z,47.17
2022-09-01T23:33:43.025Z,47.38
2022-09-01T23:36:12.644Z,47.37
2022-09-01T23:38:40.863Z,47.54
2022-09-01T23:41:14.676Z,47.44
2022-09-01T23:43:46.020Z,47.44
2022-09-01T23:46:27.424Z,47.67
2022-09-01T23:48:55.883Z,47.60
2022-09-01T23:51:27.371Z,47.41
2022-09-01T23:53:58.783Z,47.80
2022-09-01T23:56:28.482Z,47.81
2022-09-01T23:58:57.031Z,47.73
